Pagrindinis puslapis
METAR-TAF:

METAR-TAF

Oro uostai :

Piarko tarptautinis oro uostas

Port of Speinas, Trinidadas, Trinidadas ir Tobagas

platuma: 10-37N, ilguma: 061-21W, Aukštis: 12 m

Dabartinis oras

Ataskaita buvo paskelbta 39 minutes, ne 02:00 UTC
Vėjas 4 kt iš Rytų
Temperatūra 25°C
Drėgmė 69%
Slėgis 1013 hPa
Matomumas 10 km arba daugiau
Mažai debesys ne aukštis 1800 ft

METAR: TTPP 010200Z 10004KT 9999 FEW018 25/19 Q1013 NOSIG

Laikas: 22:39 (02:39 UTC)

Prognozė

Ataskaita buvo paskelbta 4 valandos ir 39 minutes, ne 22:00 UTC
Prognozė galioja nuo 01 metu 00 UTC su 01 metu 24 UTC
Vėjas 5 kt iš Rytų
Matomumas 10 km arba daugiau
Mažai debesys ne aukštis 1600 ft
Tapsmas
nuo 01 metu 13 UTC su 01 metu 15 UTC
Vėjas 10 kt iš Rytų/Pietryčių
Išsisklaidę debesys ne aukštis 2500 ft

TAF: TTPP 312200Z 0100/0124 09005KT 9999 FEW016 BECMG 0113/0115 12010KT SCT025

Orai ataskaitas ir orų prognozės (METAR, TAF).

turimą stotys yra geltonos ir raudonos taškus žemėlapyje.

Perkelti pele per norėdami pamatyti stoties vardą.

Tada spustelėkite, norėdami matyti oro stebėjimo ir prognozės.

Norėdami pakeisti žemėlapį: spustelėkite ant žalios mygtukų su juodo kryžiaus žemyn,; žalią mygtuką su brūkšneliu, jei norite nutolinti; arba žalių rodyklių gretimoms žemėlapius.


METAR-TAF: